Details for Qantas at YPAD




Go Back


Latest METAR
Local Time

YPAD 240000Z 21012KT 9999 BKN018 BKN025 21/17 Q1009

24/02/2018, 10:45:53

Description
Results
Qantas Logo
Number of Pilots based at YPAD
0 Pilots Based here
Number of Qantas Flights Departed from YPAD
3 Flights Departed
Number of Qantas Flights Arrived at YPAD
4 Flights Arrived
Number of Qantas Schedules Departing from YPAD
46 Schedules
Number of Qantas Schedules Arriving at YPAD
46 Schedules
Number of Qantas Schedules Departing from YPAD availible today
17 Schedules Today
Number of Qantas Schedules Arriving at YPAD availible today
17 Schedules Today
Average Landing Rate at YPAD
-102 fpm
Qantas Average Landing Rate at YPAD
-91 fpm
Total Fuel Purchased at YPAD by Qantas
13,726.16 kgs / 30,260.69 lbs

Pilots Based at YPAD


Pilot ID
Pilot Name
Pilot Rank
No. of Flights
No. of Flying Hours
There are no pilots assigned to this hub!   Will you be the first?
Content